sensor_id;sensor_type;location;lat;lon;timestamp;P1;durP1;ratioP1;P2;durP2;ratioP2
53877;SDS011;39790;53.144;6.424;2022-07-12T00:01:28;3.83;;;2.28;;
53877;SDS011;39790;53.144;6.424;2022-07-12T00:03:54;3.28;;;2.08;;
53877;SDS011;39790;53.144;6.424;2022-07-12T00:06:19;4.40;;;2.67;;
53877;SDS011;39790;53.144;6.424;2022-07-12T00:08:45;4.03;;;2.70;;
53877;SDS011;39790;53.144;6.424;2022-07-12T00:11:10;3.17;;;2.47;;
53877;SDS011;39790;53.144;6.424;2022-07-12T00:13:36;4.78;;;2.55;;
53877;SDS011;39790;53.144;6.424;2022-07-12T00:16:02;3.80;;;2.63;;
53877;SDS011;39790;53.144;6.424;2022-07-12T00:18:27;3.60;;;2.67;;
53877;SDS011;39790;53.144;6.424;2022-07-12T00:20:53;3.90;;;2.58;;
53877;SDS011;39790;53.144;6.424;2022-07-12T00:23:19;4.10;;;2.50;;
53877;SDS011;39790;53.144;6.424;2022-07-12T00:25:45;4.00;;;2.50;;
53877;SDS011;39790;53.144;6.424;2022-07-12T00:28:10;3.53;;;2.35;;
53877;SDS011;39790;53.144;6.424;2022-07-12T00:30:36;3.10;;;2.20;;
53877;SDS011;39790;53.144;6.424;2022-07-12T00:33:02;4.72;;;2.20;;
53877;SDS011;39790;53.144;6.424;2022-07-12T00:35:27;3.85;;;2.50;;
53877;SDS011;39790;53.144;6.424;2022-07-12T00:37:53;3.88;;;2.35;;
53877;SDS011;39790;53.144;6.424;2022-07-12T00:40:19;3.90;;;2.78;;
53877;SDS011;39790;53.144;6.424;2022-07-12T00:42:44;4.47;;;2.97;;
53877;SDS011;39790;53.144;6.424;2022-07-12T00:45:10;4.13;;;2.30;;
53877;SDS011;39790;53.144;6.424;2022-07-12T00:50:09;3.92;;;2.30;;
53877;SDS011;39790;53.144;6.424;2022-07-12T00:52:41;4.00;;;2.53;;
53877;SDS011;39790;53.144;6.424;2022-07-12T00:55:08;5.38;;;3.17;;
53877;SDS011;39790;53.144;6.424;2022-07-12T00:57:35;3.63;;;2.17;;
53877;SDS011;39790;53.144;6.424;2022-07-12T01:00:03;4.25;;;2.60;;
53877;SDS011;39790;53.144;6.424;2022-07-12T01:02:30;3.75;;;2.67;;
53877;SDS011;39790;53.144;6.424;2022-07-12T01:04:56;4.05;;;2.30;;
53877;SDS011;39790;53.144;6.424;2022-07-12T01:07:24;3.28;;;2.20;;
53877;SDS011;39790;53.144;6.424;2022-07-12T01:09:51;3.78;;;2.47;;
53877;SDS011;39790;53.144;6.424;2022-07-12T01:12:20;4.43;;;2.40;;
53877;SDS011;39790;53.144;6.424;2022-07-12T01:14:47;2.60;;;1.60;;
53877;SDS011;39790;53.144;6.424;2022-07-12T01:17:15;4.53;;;3.08;;
53877;SDS011;39790;53.144;6.424;2022-07-12T01:19:42;4.38;;;2.67;;
53877;SDS011;39790;53.144;6.424;2022-07-12T01:22:09;4.28;;;2.95;;
53877;SDS011;39790;53.144;6.424;2022-07-12T01:24:36;3.25;;;2.30;;
53877;SDS011;39790;53.144;6.424;2022-07-12T01:27:02;3.78;;;2.58;;
53877;SDS011;39790;53.144;6.424;2022-07-12T01:29:29;4.10;;;2.55;;
53877;SDS011;39790;53.144;6.424;2022-07-12T01:31:56;3.28;;;2.20;;
53877;SDS011;39790;53.144;6.424;2022-07-12T01:34:44;3.15;;;2.35;;
53877;SDS011;39790;53.144;6.424;2022-07-12T01:37:11;3.53;;;2.53;;
53877;SDS011;39790;53.144;6.424;2022-07-12T01:39:39;3.80;;;2.50;;
53877;SDS011;39790;53.144;6.424;2022-07-12T01:42:04;3.63;;;2.60;;
53877;SDS011;39790;53.144;6.424;2022-07-12T01:44:30;5.53;;;3.38;;
53877;SDS011;39790;53.144;6.424;2022-07-12T01:46:56;3.45;;;2.50;;
53877;SDS011;39790;53.144;6.424;2022-07-12T01:49:23;3.30;;;2.60;;
53877;SDS011;39790;53.144;6.424;2022-07-12T01:51:49;2.97;;;2.08;;
53877;SDS011;39790;53.144;6.424;2022-07-12T01:54:14;6.38;;;2.30;;
53877;SDS011;39790;53.144;6.424;2022-07-12T01:56:40;6.65;;;3.15;;
53877;SDS011;39790;53.144;6.424;2022-07-12T01:59:06;6.07;;;3.80;;
53877;SDS011;39790;53.144;6.424;2022-07-12T02:01:32;6.43;;;4.40;;
53877;SDS011;39790;53.144;6.424;2022-07-12T02:04:03;4.38;;;3.00;;
53877;SDS011;39790;53.144;6.424;2022-07-12T02:06:29;3.78;;;2.35;;
53877;SDS011;39790;53.144;6.424;2022-07-12T02:08:55;5.03;;;2.95;;
53877;SDS011;39790;53.144;6.424;2022-07-12T02:11:21;6.53;;;3.63;;
53877;SDS011;39790;53.144;6.424;2022-07-12T02:13:47;4.45;;;3.45;;
53877;SDS011;39790;53.144;6.424;2022-07-12T02:16:12;4.53;;;2.80;;
53877;SDS011;39790;53.144;6.424;2022-07-12T02:18:38;6.60;;;3.63;;
53877;SDS011;39790;53.144;6.424;2022-07-12T02:21:03;5.55;;;3.67;;
53877;SDS011;39790;53.144;6.424;2022-07-12T02:23:29;5.88;;;3.10;;
53877;SDS011;39790;53.144;6.424;2022-07-12T02:25:54;6.72;;;3.70;;
53877;SDS011;39790;53.144;6.424;2022-07-12T02:28:20;5.32;;;3.20;;
53877;SDS011;39790;53.144;6.424;2022-07-12T02:30:45;3.72;;;2.63;;
53877;SDS011;39790;53.144;6.424;2022-07-12T02:33:12;4.45;;;3.15;;
53877;SDS011;39790;53.144;6.424;2022-07-12T02:35:40;5.45;;;3.42;;
53877;SDS011;39790;53.144;6.424;2022-07-12T02:38:09;3.83;;;2.60;;
53877;SDS011;39790;53.144;6.424;2022-07-12T02:40:34;5.22;;;3.72;;
53877;SDS011;39790;53.144;6.424;2022-07-12T02:43:18;6.47;;;4.28;;
53877;SDS011;39790;53.144;6.424;2022-07-12T02:45:47;5.15;;;3.72;;
53877;SDS011;39790;53.144;6.424;2022-07-12T02:48:13;12.05;;;5.38;;
53877;SDS011;39790;53.144;6.424;2022-07-12T02:50:39;7.32;;;4.85;;
53877;SDS011;39790;53.144;6.424;2022-07-12T02:53:05;5.78;;;4.30;;
53877;SDS011;39790;53.144;6.424;2022-07-12T02:55:32;12.25;;;7.20;;
53877;SDS011;39790;53.144;6.424;2022-07-12T02:57:57;6.70;;;4.88;;
53877;SDS011;39790;53.144;6.424;2022-07-12T03:00:23;8.43;;;5.38;;
53877;SDS011;39790;53.144;6.424;2022-07-12T03:02:49;10.15;;;5.93;;
53877;SDS011;39790;53.144;6.424;2022-07-12T03:05:14;11.82;;;6.07;;
53877;SDS011;39790;53.144;6.424;2022-07-12T03:07:40;8.43;;;5.18;;
53877;SDS011;39790;53.144;6.424;2022-07-12T03:10:06;7.03;;;4.60;;
53877;SDS011;39790;53.144;6.424;2022-07-12T03:12:32;10.70;;;5.45;;
53877;SDS011;39790;53.144;6.424;2022-07-12T03:14:58;11.30;;;5.78;;
53877;SDS011;39790;53.144;6.424;2022-07-12T03:17:23;25.10;;;6.53;;
53877;SDS011;39790;53.144;6.424;2022-07-12T03:19:49;7.30;;;5.57;;
53877;SDS011;39790;53.144;6.424;2022-07-12T03:22:15;6.72;;;4.95;;
53877;SDS011;39790;53.144;6.424;2022-07-12T03:24:40;5.97;;;4.47;;
53877;SDS011;39790;53.144;6.424;2022-07-12T03:27:06;20.75;;;6.43;;
53877;SDS011;39790;53.144;6.424;2022-07-12T03:29:32;30.58;;;6.07;;
53877;SDS011;39790;53.144;6.424;2022-07-12T03:31:57;9.05;;;5.10;;
53877;SDS011;39790;53.144;6.424;2022-07-12T03:34:23;8.98;;;4.82;;
53877;SDS011;39790;53.144;6.424;2022-07-12T03:36:48;44.95;;;7.45;;
53877;SDS011;39790;53.144;6.424;2022-07-12T03:39:14;21.25;;;4.80;;
53877;SDS011;39790;53.144;6.424;2022-07-12T03:41:40;4.88;;;3.25;;
53877;SDS011;39790;53.144;6.424;2022-07-12T03:44:06;5.53;;;3.75;;
53877;SDS011;39790;53.144;6.424;2022-07-12T03:46:31;9.68;;;4.70;;
53877;SDS011;39790;53.144;6.424;2022-07-12T03:49:00;5.20;;;3.42;;
53877;SDS011;39790;53.144;6.424;2022-07-12T03:51:26;5.82;;;3.85;;
53877;SDS011;39790;53.144;6.424;2022-07-12T03:53:52;7.45;;;4.57;;
53877;SDS011;39790;53.144;6.424;2022-07-12T03:56:17;13.65;;;4.97;;
53877;SDS011;39790;53.144;6.424;2022-07-12T03:59:02;10.48;;;4.15;;
53877;SDS011;39790;53.144;6.424;2022-07-12T04:01:28;22.88;;;5.28;;
53877;SDS011;39790;53.144;6.424;2022-07-12T04:03:57;8.73;;;4.15;;
53877;SDS011;39790;53.144;6.424;2022-07-12T04:06:22;9.02;;;4.50;;
53877;SDS011;39790;53.144;6.424;2022-07-12T04:08:48;5.22;;;4.07;;
53877;SDS011;39790;53.144;6.424;2022-07-12T04:11:14;4.45;;;3.15;;
53877;SDS011;39790;53.144;6.424;2022-07-12T04:13:39;6.72;;;3.55;;
53877;SDS011;39790;53.144;6.424;2022-07-12T04:16:05;7.80;;;4.82;;
53877;SDS011;39790;53.144;6.424;2022-07-12T04:18:31;5.07;;;3.20;;
53877;SDS011;39790;53.144;6.424;2022-07-12T04:20:57;18.52;;;5.05;;
53877;SDS011;39790;53.144;6.424;2022-07-12T04:23:23;6.13;;;3.83;;
53877;SDS011;39790;53.144;6.424;2022-07-12T04:25:49;7.60;;;3.95;;
53877;SDS011;39790;53.144;6.424;2022-07-12T04:28:16;11.30;;;4.07;;
53877;SDS011;39790;53.144;6.424;2022-07-12T04:30:41;7.75;;;4.32;;
53877;SDS011;39790;53.144;6.424;2022-07-12T04:33:09;8.02;;;3.97;;
53877;SDS011;39790;53.144;6.424;2022-07-12T04:35:35;16.00;;;4.57;;
53877;SDS011;39790;53.144;6.424;2022-07-12T04:38:01;10.27;;;4.55;;
53877;SDS011;39790;53.144;6.424;2022-07-12T04:40:27;4.82;;;3.47;;
53877;SDS011;39790;53.144;6.424;2022-07-12T04:42:52;9.00;;;3.97;;
53877;SDS011;39790;53.144;6.424;2022-07-12T04:45:18;7.30;;;3.75;;
53877;SDS011;39790;53.144;6.424;2022-07-12T04:47:44;6.60;;;4.40;;
53877;SDS011;39790;53.144;6.424;2022-07-12T04:50:09;9.70;;;4.13;;
53877;SDS011;39790;53.144;6.424;2022-07-12T04:52:36;7.25;;;3.97;;
53877;SDS011;39790;53.144;6.424;2022-07-12T04:55:02;6.63;;;4.68;;
53877;SDS011;39790;53.144;6.424;2022-07-12T04:57:28;6.55;;;3.80;;
53877;SDS011;39790;53.144;6.424;2022-07-12T04:59:53;6.32;;;4.22;;
53877;SDS011;39790;53.144;6.424;2022-07-12T05:02:19;4.50;;;3.00;;
53877;SDS011;39790;53.144;6.424;2022-07-12T05:04:44;6.32;;;3.83;;
53877;SDS011;39790;53.144;6.424;2022-07-12T05:07:11;7.07;;;3.20;;
53877;SDS011;39790;53.144;6.424;2022-07-12T05:09:36;4.70;;;3.15;;
53877;SDS011;39790;53.144;6.424;2022-07-12T05:12:02;6.28;;;4.57;;
53877;SDS011;39790;53.144;6.424;2022-07-12T05:14:28;5.22;;;3.60;;
53877;SDS011;39790;53.144;6.424;2022-07-12T05:16:53;5.60;;;3.70;;
53877;SDS011;39790;53.144;6.424;2022-07-12T05:19:19;6.28;;;4.18;;
53877;SDS011;39790;53.144;6.424;2022-07-12T05:21:44;4.13;;;2.78;;
53877;SDS011;39790;53.144;6.424;2022-07-12T05:24:10;4.53;;;2.90;;
53877;SDS011;39790;53.144;6.424;2022-07-12T05:26:36;5.18;;;3.75;;
53877;SDS011;39790;53.144;6.424;2022-07-12T05:29:01;4.75;;;3.55;;
53877;SDS011;39790;53.144;6.424;2022-07-12T05:31:27;6.10;;;3.65;;
53877;SDS011;39790;53.144;6.424;2022-07-12T05:33:53;4.80;;;3.10;;
53877;SDS011;39790;53.144;6.424;2022-07-12T05:36:19;4.70;;;3.67;;
53877;SDS011;39790;53.144;6.424;2022-07-12T05:38:45;5.82;;;4.18;;
53877;SDS011;39790;53.144;6.424;2022-07-12T05:41:10;6.85;;;3.50;;
53877;SDS011;39790;53.144;6.424;2022-07-12T05:43:36;4.90;;;3.67;;
53877;SDS011;39790;53.144;6.424;2022-07-12T05:46:03;5.82;;;3.60;;
53877;SDS011;39790;53.144;6.424;2022-07-12T05:48:30;5.68;;;4.07;;
53877;SDS011;39790;53.144;6.424;2022-07-12T05:50:55;4.63;;;2.88;;
53877;SDS011;39790;53.144;6.424;2022-07-12T05:53:41;3.58;;;2.50;;
53877;SDS011;39790;53.144;6.424;2022-07-12T05:56:07;3.80;;;2.53;;
53877;SDS011;39790;53.144;6.424;2022-07-12T05:58:32;4.85;;;3.30;;
53877;SDS011;39790;53.144;6.424;2022-07-12T06:00:58;3.17;;;2.13;;
53877;SDS011;39790;53.144;6.424;2022-07-12T06:03:23;3.25;;;2.00;;
53877;SDS011;39790;53.144;6.424;2022-07-12T06:05:49;5.38;;;3.00;;
53877;SDS011;39790;53.144;6.424;2022-07-12T06:08:14;4.75;;;2.97;;
53877;SDS011;39790;53.144;6.424;2022-07-12T06:10:40;4.50;;;2.78;;
53877;SDS011;39790;53.144;6.424;2022-07-12T06:13:05;5.53;;;3.15;;
53877;SDS011;39790;53.144;6.424;2022-07-12T06:15:31;6.07;;;3.40;;
53877;SDS011;39790;53.144;6.424;2022-07-12T06:17:57;3.42;;;2.45;;
53877;SDS011;39790;53.144;6.424;2022-07-12T06:20:23;4.55;;;2.92;;
53877;SDS011;39790;53.144;6.424;2022-07-12T06:22:49;6.93;;;2.80;;
53877;SDS011;39790;53.144;6.424;2022-07-12T06:25:14;3.40;;;2.13;;
53877;SDS011;39790;53.144;6.424;2022-07-12T06:27:40;3.80;;;2.80;;
53877;SDS011;39790;53.144;6.424;2022-07-12T06:30:06;3.30;;;2.10;;
53877;SDS011;39790;53.144;6.424;2022-07-12T06:32:32;3.92;;;2.40;;
53877;SDS011;39790;53.144;6.424;2022-07-12T06:34:58;2.88;;;1.88;;
53877;SDS011;39790;53.144;6.424;2022-07-12T06:37:24;3.53;;;2.28;;
53877;SDS011;39790;53.144;6.424;2022-07-12T06:39:49;2.90;;;2.05;;
53877;SDS011;39790;53.144;6.424;2022-07-12T06:42:15;3.40;;;2.45;;
53877;SDS011;39790;53.144;6.424;2022-07-12T06:44:40;3.63;;;2.00;;
53877;SDS011;39790;53.144;6.424;2022-07-12T06:47:06;2.65;;;1.83;;
53877;SDS011;39790;53.144;6.424;2022-07-12T06:49:31;2.47;;;1.60;;
53877;SDS011;39790;53.144;6.424;2022-07-12T06:51:57;2.78;;;1.80;;
53877;SDS011;39790;53.144;6.424;2022-07-12T06:54:23;4.30;;;1.95;;
53877;SDS011;39790;53.144;6.424;2022-07-12T06:56:50;2.83;;;1.83;;
53877;SDS011;39790;53.144;6.424;2022-07-12T06:59:15;2.78;;;1.70;;
53877;SDS011;39790;53.144;6.424;2022-07-12T07:01:41;2.38;;;1.98;;
53877;SDS011;39790;53.144;6.424;2022-07-12T07:04:08;3.08;;;1.63;;
53877;SDS011;39790;53.144;6.424;2022-07-12T07:06:34;2.58;;;1.50;;
53877;SDS011;39790;53.144;6.424;2022-07-12T07:08:59;2.50;;;1.48;;
53877;SDS011;39790;53.144;6.424;2022-07-12T07:11:25;2.53;;;1.50;;
53877;SDS011;39790;53.144;6.424;2022-07-12T07:13:51;3.00;;;1.80;;
53877;SDS011;39790;53.144;6.424;2022-07-12T07:16:17;2.00;;;1.20;;
53877;SDS011;39790;53.144;6.424;2022-07-12T07:18:45;2.35;;;1.25;;
53877;SDS011;39790;53.144;6.424;2022-07-12T07:21:10;1.77;;;1.10;;
53877;SDS011;39790;53.144;6.424;2022-07-12T07:23:36;3.00;;;1.80;;
53877;SDS011;39790;53.144;6.424;2022-07-12T07:26:01;2.35;;;1.08;;
53877;SDS011;39790;53.144;6.424;2022-07-12T07:28:27;2.10;;;1.38;;
53877;SDS011;39790;53.144;6.424;2022-07-12T07:30:52;2.00;;;1.30;;
53877;SDS011;39790;53.144;6.424;2022-07-12T07:33:21;2.20;;;1.20;;
53877;SDS011;39790;53.144;6.424;2022-07-12T07:35:51;1.83;;;0.88;;
53877;SDS011;39790;53.144;6.424;2022-07-12T07:38:17;2.28;;;1.40;;
53877;SDS011;39790;53.144;6.424;2022-07-12T07:40:43;2.35;;;1.35;;
53877;SDS011;39790;53.144;6.424;2022-07-12T07:43:09;2.35;;;1.23;;
53877;SDS011;39790;53.144;6.424;2022-07-12T07:45:35;2.47;;;1.63;;
53877;SDS011;39790;53.144;6.424;2022-07-12T07:48:00;3.20;;;1.55;;
53877;SDS011;39790;53.144;6.424;2022-07-12T07:50:26;2.70;;;1.73;;
53877;SDS011;39790;53.144;6.424;2022-07-12T07:52:52;2.53;;;1.20;;
53877;SDS011;39790;53.144;6.424;2022-07-12T07:55:18;2.20;;;1.13;;
53877;SDS011;39790;53.144;6.424;2022-07-12T07:57:44;2.83;;;1.70;;
53877;SDS011;39790;53.144;6.424;2022-07-12T08:00:11;2.60;;;1.80;;
53877;SDS011;39790;53.144;6.424;2022-07-12T08:02:38;2.33;;;1.40;;
53877;SDS011;39790;53.144;6.424;2022-07-12T08:05:05;2.72;;;1.50;;
53877;SDS011;39790;53.144;6.424;2022-07-12T08:07:31;2.45;;;1.33;;
53877;SDS011;39790;53.144;6.424;2022-07-12T08:09:57;3.10;;;1.33;;
53877;SDS011;39790;53.144;6.424;2022-07-12T08:12:22;2.47;;;1.55;;
53877;SDS011;39790;53.144;6.424;2022-07-12T08:14:48;3.00;;;1.73;;
53877;SDS011;39790;53.144;6.424;2022-07-12T08:17:13;2.45;;;1.33;;
53877;SDS011;39790;53.144;6.424;2022-07-12T08:19:39;1.95;;;1.20;;
53877;SDS011;39790;53.144;6.424;2022-07-12T08:22:05;3.20;;;1.63;;
53877;SDS011;39790;53.144;6.424;2022-07-12T08:24:30;3.15;;;1.45;;
53877;SDS011;39790;53.144;6.424;2022-07-12T08:26:56;2.10;;;1.52;;
53877;SDS011;39790;53.144;6.424;2022-07-12T08:29:21;2.47;;;1.83;;
53877;SDS011;39790;53.144;6.424;2022-07-12T08:31:47;3.13;;;1.98;;
53877;SDS011;39790;53.144;6.424;2022-07-12T08:34:13;1.88;;;1.42;;
53877;SDS011;39790;53.144;6.424;2022-07-12T08:36:38;2.20;;;1.42;;
53877;SDS011;39790;53.144;6.424;2022-07-12T08:39:04;2.67;;;1.50;;
53877;SDS011;39790;53.144;6.424;2022-07-12T08:41:30;3.13;;;1.48;;
53877;SDS011;39790;53.144;6.424;2022-07-12T08:43:56;2.08;;;1.30;;
53877;SDS011;39790;53.144;6.424;2022-07-12T08:46:21;2.65;;;1.60;;
53877;SDS011;39790;53.144;6.424;2022-07-12T08:48:47;3.25;;;1.60;;
53877;SDS011;39790;53.144;6.424;2022-07-12T08:51:14;3.22;;;2.13;;
53877;SDS011;39790;53.144;6.424;2022-07-12T08:53:43;3.35;;;1.60;;
53877;SDS011;39790;53.144;6.424;2022-07-12T08:56:29;5.40;;;1.73;;
53877;SDS011;39790;53.144;6.424;2022-07-12T08:59:12;2.08;;;1.60;;
53877;SDS011;39790;53.144;6.424;2022-07-12T09:01:46;4.18;;;2.03;;
53877;SDS011;39790;53.144;6.424;2022-07-12T09:04:15;3.42;;;1.40;;
53877;SDS011;39790;53.144;6.424;2022-07-12T09:06:43;3.05;;;1.80;;
53877;SDS011;39790;53.144;6.424;2022-07-12T09:09:08;2.85;;;1.48;;
53877;SDS011;39790;53.144;6.424;2022-07-12T09:11:38;3.15;;;2.17;;
53877;SDS011;39790;53.144;6.424;2022-07-12T09:14:04;2.85;;;1.80;;
53877;SDS011;39790;53.144;6.424;2022-07-12T09:16:30;3.40;;;2.20;;
53877;SDS011;39790;53.144;6.424;2022-07-12T09:19:17;2.40;;;1.98;;
53877;SDS011;39790;53.144;6.424;2022-07-12T09:21:50;3.90;;;1.80;;
53877;SDS011;39790;53.144;6.424;2022-07-12T09:24:18;2.88;;;1.88;;
53877;SDS011;39790;53.144;6.424;2022-07-12T09:26:44;3.47;;;1.92;;
53877;SDS011;39790;53.144;6.424;2022-07-12T09:29:11;2.75;;;2.00;;
53877;SDS011;39790;53.144;6.424;2022-07-12T09:31:42;3.72;;;1.88;;
53877;SDS011;39790;53.144;6.424;2022-07-12T09:34:28;1.65;;;1.33;;
53877;SDS011;39790;53.144;6.424;2022-07-12T09:37:13;4.20;;;1.83;;
53877;SDS011;39790;53.144;6.424;2022-07-12T09:39:38;3.72;;;2.08;;
53877;SDS011;39790;53.144;6.424;2022-07-12T09:42:06;3.55;;;2.15;;
53877;SDS011;39790;53.144;6.424;2022-07-12T09:44:34;2.75;;;1.70;;
53877;SDS011;39790;53.144;6.424;2022-07-12T09:47:00;3.72;;;1.80;;
53877;SDS011;39790;53.144;6.424;2022-07-12T09:49:27;2.85;;;1.50;;
53877;SDS011;39790;53.144;6.424;2022-07-12T09:51:54;3.88;;;2.22;;
53877;SDS011;39790;53.144;6.424;2022-07-12T09:54:22;3.60;;;1.98;;
53877;SDS011;39790;53.144;6.424;2022-07-12T09:56:52;3.70;;;1.65;;
53877;SDS011;39790;53.144;6.424;2022-07-12T09:59:20;1.92;;;1.30;;
53877;SDS011;39790;53.144;6.424;2022-07-12T10:01:48;3.70;;;1.48;;
53877;SDS011;39790;53.144;6.424;2022-07-12T10:04:15;2.42;;;1.73;;
53877;SDS011;39790;53.144;6.424;2022-07-12T10:06:46;2.75;;;1.65;;
53877;SDS011;39790;53.144;6.424;2022-07-12T10:09:12;4.55;;;1.80;;
53877;SDS011;39790;53.144;6.424;2022-07-12T10:11:39;2.70;;;1.70;;
53877;SDS011;39790;53.144;6.424;2022-07-12T10:14:06;2.35;;;1.80;;
53877;SDS011;39790;53.144;6.424;2022-07-12T10:16:37;2.50;;;1.60;;
53877;SDS011;39790;53.144;6.424;2022-07-12T10:21:56;2.60;;;1.70;;
53877;SDS011;39790;53.144;6.424;2022-07-12T10:26:58;2.15;;;1.20;;
53877;SDS011;39790;53.144;6.424;2022-07-12T10:29:24;2.53;;;1.52;;
53877;SDS011;39790;53.144;6.424;2022-07-12T10:31:51;3.67;;;1.70;;
53877;SDS011;39790;53.144;6.424;2022-07-12T10:34:24;3.05;;;1.48;;
53877;SDS011;39790;53.144;6.424;2022-07-12T10:39:28;3.67;;;1.30;;
53877;SDS011;39790;53.144;6.424;2022-07-12T10:42:12;3.85;;;1.33;;
53877;SDS011;39790;53.144;6.424;2022-07-12T10:44:40;1.30;;;1.00;;
53877;SDS011;39790;53.144;6.424;2022-07-12T10:47:11;1.48;;;0.90;;
53877;SDS011;39790;53.144;6.424;2022-07-12T10:49:50;2.47;;;1.00;;
53877;SDS011;39790;53.144;6.424;2022-07-12T10:52:22;3.08;;;1.40;;
53877;SDS011;39790;53.144;6.424;2022-07-12T11:00:08;1.85;;;0.88;;
53877;SDS011;39790;53.144;6.424;2022-07-12T11:02:35;1.67;;;1.00;;
53877;SDS011;39790;53.144;6.424;2022-07-12T11:05:02;1.63;;;0.90;;
53877;SDS011;39790;53.144;6.424;2022-07-12T11:07:28;1.85;;;0.80;;
53877;SDS011;39790;53.144;6.424;2022-07-12T11:09:54;1.80;;;1.15;;
53877;SDS011;39790;53.144;6.424;2022-07-12T11:12:20;1.30;;;0.80;;
53877;SDS011;39790;53.144;6.424;2022-07-12T11:14:52;0.80;;;0.60;;
53877;SDS011;39790;53.144;6.424;2022-07-12T11:17:37;1.13;;;0.77;;
53877;SDS011;39790;53.144;6.424;2022-07-12T11:20:10;0.98;;;0.70;;
53877;SDS011;39790;53.144;6.424;2022-07-12T11:22:39;1.95;;;1.40;;
53877;SDS011;39790;53.144;6.424;2022-07-12T11:25:09;1.77;;;0.90;;
53877;SDS011;39790;53.144;6.424;2022-07-12T11:27:35;2.72;;;0.80;;
53877;SDS011;39790;53.144;6.424;2022-07-12T11:30:03;2.65;;;1.05;;
53877;SDS011;39790;53.144;6.424;2022-07-12T11:32:37;5.05;;;1.60;;
53877;SDS011;39790;53.144;6.424;2022-07-12T11:35:06;1.98;;;0.90;;
53877;SDS011;39790;53.144;6.424;2022-07-12T11:37:56;2.22;;;1.02;;
53877;SDS011;39790;53.144;6.424;2022-07-12T11:40:26;1.98;;;1.00;;
53877;SDS011;39790;53.144;6.424;2022-07-12T11:42:57;1.80;;;1.20;;
53877;SDS011;39790;53.144;6.424;2022-07-12T11:45:28;2.38;;;0.82;;
53877;SDS011;39790;53.144;6.424;2022-07-12T11:47:57;2.40;;;1.42;;
53877;SDS011;39790;53.144;6.424;2022-07-12T11:50:24;2.58;;;1.05;;
53877;SDS011;39790;53.144;6.424;2022-07-12T11:52:50;1.75;;;1.00;;
53877;SDS011;39790;53.144;6.424;2022-07-12T11:55:16;3.05;;;1.00;;
53877;SDS011;39790;53.144;6.424;2022-07-12T11:57:41;2.10;;;1.30;;
53877;SDS011;39790;53.144;6.424;2022-07-12T12:00:15;3.53;;;1.15;;
53877;SDS011;39790;53.144;6.424;2022-07-12T12:02:51;2.00;;;1.17;;
53877;SDS011;39790;53.144;6.424;2022-07-12T12:05:18;1.92;;;1.00;;
53877;SDS011;39790;53.144;6.424;2022-07-12T12:07:44;1.27;;;0.85;;
53877;SDS011;39790;53.144;6.424;2022-07-12T12:10:11;2.67;;;1.10;;
53877;SDS011;39790;53.144;6.424;2022-07-12T12:12:41;2.92;;;1.20;;
53877;SDS011;39790;53.144;6.424;2022-07-12T12:15:13;7.40;;;1.35;;
53877;SDS011;39790;53.144;6.424;2022-07-12T12:17:45;3.22;;;1.38;;
53877;SDS011;39790;53.144;6.424;2022-07-12T12:20:22;1.55;;;1.00;;
53877;SDS011;39790;53.144;6.424;2022-07-12T12:22:53;2.28;;;1.15;;
53877;SDS011;39790;53.144;6.424;2022-07-12T12:25:26;2.47;;;1.27;;
53877;SDS011;39790;53.144;6.424;2022-07-12T12:27:54;1.02;;;0.63;;
53877;SDS011;39790;53.144;6.424;2022-07-12T12:30:22;1.88;;;1.30;;
53877;SDS011;39790;53.144;6.424;2022-07-12T12:35:18;6.95;;;1.45;;
53877;SDS011;39790;53.144;6.424;2022-07-12T12:37:49;1.90;;;1.10;;
53877;SDS011;39790;53.144;6.424;2022-07-12T12:40:18;2.92;;;1.20;;
53877;SDS011;39790;53.144;6.424;2022-07-12T12:42:45;1.88;;;1.10;;
53877;SDS011;39790;53.144;6.424;2022-07-12T12:45:18;2.80;;;1.17;;
53877;SDS011;39790;53.144;6.424;2022-07-12T12:47:55;3.15;;;1.67;;
53877;SDS011;39790;53.144;6.424;2022-07-12T12:50:44;2.60;;;1.25;;
53877;SDS011;39790;53.144;6.424;2022-07-12T12:53:12;3.28;;;1.70;;
53877;SDS011;39790;53.144;6.424;2022-07-12T12:55:41;2.05;;;1.33;;
53877;SDS011;39790;53.144;6.424;2022-07-12T12:58:08;2.78;;;1.27;;
53877;SDS011;39790;53.144;6.424;2022-07-12T13:00:35;3.30;;;1.60;;
53877;SDS011;39790;53.144;6.424;2022-07-12T13:03:03;2.80;;;1.10;;
53877;SDS011;39790;53.144;6.424;2022-07-12T13:05:33;1.83;;;1.10;;
53877;SDS011;39790;53.144;6.424;2022-07-12T13:07:59;2.22;;;1.20;;
53877;SDS011;39790;53.144;6.424;2022-07-12T13:10:25;2.42;;;1.27;;
53877;SDS011;39790;53.144;6.424;2022-07-12T13:12:51;2.40;;;1.30;;
53877;SDS011;39790;53.144;6.424;2022-07-12T13:15:17;2.75;;;1.23;;
53877;SDS011;39790;53.144;6.424;2022-07-12T13:17:43;3.80;;;1.35;;
53877;SDS011;39790;53.144;6.424;2022-07-12T13:20:09;1.20;;;0.90;;
53877;SDS011;39790;53.144;6.424;2022-07-12T13:22:35;2.47;;;1.10;;
53877;SDS011;39790;53.144;6.424;2022-07-12T13:25:02;2.22;;;1.40;;
53877;SDS011;39790;53.144;6.424;2022-07-12T13:27:28;1.65;;;1.10;;
53877;SDS011;39790;53.144;6.424;2022-07-12T13:29:54;3.22;;;1.20;;
53877;SDS011;39790;53.144;6.424;2022-07-12T13:32:20;2.58;;;1.30;;
53877;SDS011;39790;53.144;6.424;2022-07-12T13:34:49;2.15;;;1.27;;
53877;SDS011;39790;53.144;6.424;2022-07-12T13:37:15;2.25;;;1.60;;
53877;SDS011;39790;53.144;6.424;2022-07-12T13:39:40;3.15;;;1.40;;
53877;SDS011;39790;53.144;6.424;2022-07-12T13:42:24;2.05;;;1.20;;
53877;SDS011;39790;53.144;6.424;2022-07-12T13:44:51;2.40;;;1.50;;
53877;SDS011;39790;53.144;6.424;2022-07-12T13:47:20;2.60;;;1.50;;
53877;SDS011;39790;53.144;6.424;2022-07-12T13:49:47;1.42;;;1.02;;
53877;SDS011;39790;53.144;6.424;2022-07-12T13:52:13;3.17;;;1.27;;
53877;SDS011;39790;53.144;6.424;2022-07-12T13:54:38;2.05;;;1.10;;
53877;SDS011;39790;53.144;6.424;2022-07-12T13:57:04;2.80;;;1.67;;
53877;SDS011;39790;53.144;6.424;2022-07-12T13:59:30;2.10;;;1.40;;
53877;SDS011;39790;53.144;6.424;2022-07-12T14:01:56;2.45;;;1.20;;
53877;SDS011;39790;53.144;6.424;2022-07-12T14:04:21;2.35;;;1.30;;
53877;SDS011;39790;53.144;6.424;2022-07-12T14:06:47;1.83;;;1.25;;
53877;SDS011;39790;53.144;6.424;2022-07-12T14:09:14;2.20;;;1.10;;
53877;SDS011;39790;53.144;6.424;2022-07-12T14:11:40;6.28;;;1.15;;
53877;SDS011;39790;53.144;6.424;2022-07-12T14:14:06;2.65;;;1.33;;
53877;SDS011;39790;53.144;6.424;2022-07-12T14:16:32;2.97;;;1.10;;
53877;SDS011;39790;53.144;6.424;2022-07-12T14:18:58;2.15;;;1.20;;
53877;SDS011;39790;53.144;6.424;2022-07-12T14:21:26;1.95;;;1.05;;
53877;SDS011;39790;53.144;6.424;2022-07-12T14:23:52;5.20;;;1.52;;
53877;SDS011;39790;53.144;6.424;2022-07-12T14:26:19;2.55;;;1.33;;
53877;SDS011;39790;53.144;6.424;2022-07-12T14:28:44;1.70;;;1.10;;
53877;SDS011;39790;53.144;6.424;2022-07-12T14:31:10;1.90;;;1.42;;
53877;SDS011;39790;53.144;6.424;2022-07-12T14:33:36;2.10;;;1.30;;
53877;SDS011;39790;53.144;6.424;2022-07-12T14:36:02;1.65;;;1.10;;
53877;SDS011;39790;53.144;6.424;2022-07-12T14:38:28;1.70;;;1.15;;
53877;SDS011;39790;53.144;6.424;2022-07-12T14:40:54;2.17;;;1.00;;
53877;SDS011;39790;53.144;6.424;2022-07-12T14:43:19;2.08;;;1.27;;
53877;SDS011;39790;53.144;6.424;2022-07-12T14:45:45;2.58;;;1.08;;
53877;SDS011;39790;53.144;6.424;2022-07-12T14:48:11;1.35;;;1.00;;
53877;SDS011;39790;53.144;6.424;2022-07-12T14:50:37;2.42;;;1.42;;
53877;SDS011;39790;53.144;6.424;2022-07-12T14:53:03;3.05;;;1.10;;
53877;SDS011;39790;53.144;6.424;2022-07-12T14:55:29;3.53;;;1.00;;
53877;SDS011;39790;53.144;6.424;2022-07-12T14:57:54;1.48;;;0.85;;
53877;SDS011;39790;53.144;6.424;2022-07-12T15:00:20;1.92;;;0.65;;
53877;SDS011;39790;53.144;6.424;2022-07-12T15:02:46;1.20;;;0.70;;
53877;SDS011;39790;53.144;6.424;2022-07-12T15:05:12;2.35;;;0.80;;
53877;SDS011;39790;53.144;6.424;2022-07-12T15:07:38;1.35;;;0.55;;